Terminal Aerodrome Forecast
Issued by NWS

Home | Current Version | Previous Version | Text Only | Print | Product List | Glossary On
Versions: 1 2 3 4 5 6 7 8 9 10 11 12 13
751
FTUS45 KABQ 181122
TAFFMN
TAF
KFMN 181122Z 1812/1912 08008KT P6SM SKC
     FM181500 12006KT P6SM SKC
     FM181900 26008KT P6SM SKC
     FM190100 31009KT P6SM FEW120
     FM190400 08006KT P6SM SKC=

USA.gov is the U.S. government's official web portal to all federal, state and local government web resources and services.